createdAt,value
2022-09-15T00:01:47.670Z,16.17
2022-09-15T00:04:16.887Z,16.18
2022-09-15T00:06:55.833Z,16.18
2022-09-15T00:09:30.572Z,16.15
2022-09-15T00:12:02.333Z,16.13
2022-09-15T00:14:32.204Z,16.11
2022-09-15T00:17:01.331Z,16.10
2022-09-15T00:19:32.333Z,16.06
2022-09-15T00:22:07.938Z,16.01
2022-09-15T00:24:39.383Z,15.98
2022-09-15T00:27:08.955Z,15.96
2022-09-15T00:29:38.383Z,15.95
2022-09-15T00:32:07.715Z,15.99
2022-09-15T00:34:38.413Z,16.00
2022-09-15T00:37:14.024Z,16.02
2022-09-15T00:39:46.787Z,16.02
2022-09-15T00:42:21.330Z,15.99
2022-09-15T00:44:52.250Z,15.97
2022-09-15T00:47:26.791Z,15.98
2022-09-15T00:50:01.887Z,15.97
2022-09-15T00:52:43.030Z,15.94
2022-09-15T00:55:26.924Z,15.94
2022-09-15T00:58:03.438Z,15.95
2022-09-15T01:00:33.326Z,15.93
2022-09-15T01:03:03.978Z,15.91
2022-09-15T01:05:42.015Z,15.89
2022-09-15T01:08:24.855Z,15.90
2022-09-15T01:10:56.629Z,15.88
2022-09-15T01:13:29.494Z,15.89
2022-09-15T01:22:53.216Z,15.93
2022-09-15T01:25:53.319Z,15.87
2022-09-15T01:28:37.830Z,15.83
2022-09-15T01:31:29.567Z,15.80
2022-09-15T01:34:18.497Z,15.78
2022-09-15T01:37:18.166Z,15.77
2022-09-15T01:39:50.285Z,15.76
2022-09-15T01:42:22.961Z,15.77
2022-09-15T01:45:06.920Z,15.78
2022-09-15T01:47:36.789Z,15.77
2022-09-15T01:50:23.734Z,15.75
2022-09-15T01:52:59.610Z,15.72
2022-09-15T01:55:38.224Z,15.70
2022-09-15T01:58:46.094Z,15.67
2022-09-15T02:01:26.778Z,15.64
2022-09-15T02:04:19.281Z,15.66
2022-09-15T02:07:16.711Z,15.65
2022-09-15T02:09:54.730Z,15.62
2022-09-15T02:13:01.684Z,15.60
2022-09-15T02:15:39.071Z,15.60
2022-09-15T02:18:16.103Z,15.60
2022-09-15T02:20:54.909Z,15.59
2022-09-15T02:23:45.588Z,15.57
2022-09-15T02:26:25.457Z,15.58
2022-09-15T02:28:58.509Z,15.57
2022-09-15T02:31:30.932Z,15.55
2022-09-15T02:34:07.225Z,15.54
2022-09-15T02:36:35.821Z,15.51
2022-09-15T02:39:09.509Z,15.47
2022-09-15T02:41:42.028Z,15.44
2022-09-15T02:44:15.374Z,15.40
2022-09-15T02:46:45.648Z,15.35
2022-09-15T02:49:19.685Z,15.31
2022-09-15T02:51:47.775Z,15.28
2022-09-15T02:54:19.457Z,15.27
2022-09-15T02:56:47.826Z,15.27
2022-09-15T02:59:17.353Z,15.24
2022-09-15T03:01:45.444Z,15.21
2022-09-15T03:04:14.064Z,15.16
2022-09-15T03:06:44.106Z,15.10
2022-09-15T03:09:17.722Z,15.03
2022-09-15T03:11:49.002Z,14.98
2022-09-15T03:14:17.142Z,14.93
2022-09-15T03:16:45.179Z,14.87
2022-09-15T03:19:13.524Z,14.80
2022-09-15T03:21:46.986Z,14.73
2022-09-15T03:24:19.314Z,14.69
2022-09-15T03:26:49.653Z,14.65
2022-09-15T03:29:20.851Z,14.61
2022-09-15T03:31:52.647Z,14.57
2022-09-15T03:34:22.774Z,14.56
2022-09-15T03:37:09.316Z,14.54
2022-09-15T03:39:47.093Z,14.52
2022-09-15T03:42:16.131Z,14.47
2022-09-15T03:45:05.602Z,14.44
2022-09-15T03:47:39.908Z,14.40
2022-09-15T03:50:10.178Z,14.37
2022-09-15T03:52:38.730Z,14.36
2022-09-15T03:55:16.384Z,14.36
2022-09-15T03:57:59.598Z,14.35
2022-09-15T04:00:31.836Z,14.31
2022-09-15T04:03:07.136Z,14.24
2022-09-15T04:05:37.328Z,14.20
2022-09-15T04:08:05.909Z,14.17
2022-09-15T04:10:38.947Z,14.15
2022-09-15T04:13:13.014Z,14.14
2022-09-15T04:15:45.383Z,14.13
2022-09-15T04:18:19.782Z,14.13
2022-09-15T04:20:48.722Z,14.12
2022-09-15T04:23:18.453Z,14.12
2022-09-15T04:25:56.823Z,14.15
2022-09-15T04:28:26.768Z,14.16
2022-09-15T04:31:03.914Z,14.16
2022-09-15T04:34:00.493Z,14.13
2022-09-15T04:36:39.679Z,14.10
2022-09-15T04:39:39.560Z,14.07
2022-09-15T04:42:08.233Z,14.04
2022-09-15T04:44:36.467Z,14.01
2022-09-15T04:47:08.113Z,14.00
2022-09-15T04:49:45.505Z,13.98
2022-09-15T04:52:26.889Z,13.98
2022-09-15T04:55:00.219Z,13.98
2022-09-15T04:57:32.142Z,13.98
2022-09-15T05:00:14.160Z,13.98
2022-09-15T05:02:46.179Z,13.98
2022-09-15T05:05:18.360Z,14.01
2022-09-15T05:07:57.138Z,14.00
2022-09-15T05:10:35.340Z,14.01
2022-09-15T05:13:21.271Z,14.03
2022-09-15T05:15:52.168Z,14.05
2022-09-15T05:18:32.531Z,14.07
2022-09-15T05:21:12.281Z,14.08
2022-09-15T05:23:48.951Z,14.08
2022-09-15T05:26:20.046Z,14.09
2022-09-15T05:28:47.802Z,14.13
2022-09-15T05:31:22.974Z,14.17
2022-09-15T05:33:54.307Z,14.18
2022-09-15T05:36:25.694Z,14.22
2022-09-15T05:38:57.186Z,14.25
2022-09-15T05:41:26.939Z,14.30
2022-09-15T05:43:59.261Z,14.34
2022-09-15T05:46:32.249Z,14.39
2022-09-15T05:49:03.489Z,14.43
2022-09-15T05:51:37.216Z,14.50
2022-09-15T05:54:09.820Z,14.57
2022-09-15T05:56:40.765Z,14.61
2022-09-15T05:59:08.991Z,14.64
2022-09-15T06:01:39.322Z,14.64
2022-09-15T06:04:07.901Z,14.66
2022-09-15T06:06:38.754Z,14.72
2022-09-15T06:09:06.754Z,14.79
2022-09-15T06:11:35.180Z,14.87
2022-09-15T06:14:04.177Z,14.93
2022-09-15T06:16:34.725Z,14.97
2022-09-15T06:19:04.318Z,15.02
2022-09-15T06:21:35.282Z,15.05
2022-09-15T06:24:07.572Z,15.10
2022-09-15T06:26:35.746Z,15.09
2022-09-15T06:29:05.622Z,15.10
2022-09-15T06:31:39.060Z,15.07
2022-09-15T06:36:54.403Z,15.08
2022-09-15T06:39:22.316Z,15.14
2022-09-15T06:42:02.307Z,15.19
2022-09-15T06:44:34.760Z,15.26
2022-09-15T06:47:03.043Z,15.28
2022-09-15T06:49:31.330Z,15.25
2022-09-15T06:52:02.345Z,15.22
2022-09-15T06:54:31.442Z,15.22
2022-09-15T06:56:59.596Z,15.23
2022-09-15T06:59:28.568Z,15.20
2022-09-15T07:02:05.245Z,15.11
2022-09-15T07:04:37.304Z,15.21
2022-09-15T07:07:05.299Z,15.20
2022-09-15T07:09:34.515Z,15.25
2022-09-15T07:12:03.413Z,15.25
2022-09-15T07:14:31.212Z,15.26
2022-09-15T07:16:59.007Z,15.31
2022-09-15T07:19:27.435Z,15.39
2022-09-15T07:22:03.462Z,15.42
2022-09-15T07:24:31.735Z,15.41
2022-09-15T07:27:00.970Z,15.41
2022-09-15T07:29:28.827Z,15.48
2022-09-15T07:31:57.955Z,15.56
2022-09-15T07:34:26.026Z,15.61
2022-09-15T07:36:55.447Z,15.65
2022-09-15T07:39:26.333Z,15.68
2022-09-15T07:41:55.346Z,15.70
2022-09-15T07:44:23.175Z,15.68
2022-09-15T07:46:52.908Z,15.71
2022-09-15T07:49:21.017Z,15.80
2022-09-15T07:51:48.917Z,15.92
2022-09-15T07:54:21.093Z,16.04
2022-09-15T07:56:51.329Z,16.08
2022-09-15T07:59:19.033Z,16.09
2022-09-15T08:01:47.727Z,16.09
2022-09-15T08:04:16.021Z,16.06
2022-09-15T08:06:44.058Z,16.09
2022-09-15T08:09:14.893Z,16.11
2022-09-15T08:11:45.580Z,16.12
2022-09-15T08:14:15.367Z,16.15
2022-09-15T08:16:45.732Z,16.15
2022-09-15T08:19:14.445Z,16.21
2022-09-15T08:21:43.342Z,16.34
2022-09-15T08:24:11.239Z,16.49
2022-09-15T08:26:39.576Z,16.65
2022-09-15T08:29:08.271Z,16.72
2022-09-15T08:31:36.370Z,16.76
2022-09-15T08:34:07.270Z,16.77
2022-09-15T08:36:35.080Z,16.85
2022-09-15T08:39:05.336Z,16.93
2022-09-15T08:41:42.235Z,17.04
2022-09-15T08:44:31.778Z,17.17
2022-09-15T08:47:25.254Z,17.28
2022-09-15T08:50:08.031Z,17.37
2022-09-15T08:52:45.505Z,17.38
2022-09-15T08:55:21.819Z,17.45
2022-09-15T08:57:54.512Z,17.58
2022-09-15T09:00:22.973Z,17.70
2022-09-15T09:03:06.787Z,17.76
2022-09-15T09:06:09.856Z,17.79
2022-09-15T09:09:00.423Z,17.82
2022-09-15T09:11:49.635Z,17.79
2022-09-15T09:14:41.543Z,17.76
2022-09-15T09:17:45.809Z,17.70
2022-09-15T09:20:36.321Z,17.68
2022-09-15T09:23:10.404Z,17.63
2022-09-15T09:25:41.766Z,17.55
2022-09-15T09:28:37.382Z,17.50
2022-09-15T09:31:08.458Z,17.46
2022-09-15T09:34:17.711Z,17.45
2022-09-15T09:36:58.467Z,17.53
2022-09-15T09:39:28.295Z,17.64
2022-09-15T09:41:56.253Z,17.76
2022-09-15T09:44:32.025Z,17.89
2022-09-15T09:47:01.849Z,18.02
2022-09-15T09:49:34.773Z,18.07
2022-09-15T09:52:04.931Z,18.09
2022-09-15T09:54:35.443Z,18.14
2022-09-15T09:57:36.602Z,18.24
2022-09-15T10:00:32.166Z,18.38
2022-09-15T10:03:11.810Z,18.50
2022-09-15T10:05:40.500Z,18.61
2022-09-15T10:08:19.447Z,18.70
2022-09-15T10:10:57.113Z,18.81
2022-09-15T10:13:27.167Z,18.95
2022-09-15T10:16:20.922Z,19.06
2022-09-15T10:18:54.318Z,19.23
2022-09-15T10:21:24.881Z,19.35
2022-09-15T10:23:53.257Z,19.45
2022-09-15T10:26:32.293Z,19.47
2022-09-15T10:29:13.166Z,19.44
2022-09-15T10:31:42.023Z,19.45
2022-09-15T10:34:27.802Z,19.46
2022-09-15T10:37:19.732Z,19.40
2022-09-15T10:39:54.285Z,19.30
2022-09-15T10:42:40.236Z,19.28
2022-09-15T10:45:18.375Z,19.23
2022-09-15T10:48:20.139Z,19.15
2022-09-15T10:50:50.936Z,19.06
2022-09-15T10:53:49.799Z,19.04
2022-09-15T10:56:41.978Z,19.05
2022-09-15T10:59:14.203Z,19.06
2022-09-15T11:01:58.372Z,19.04
2022-09-15T11:04:52.274Z,19.01
2022-09-15T11:07:38.318Z,19.06
2022-09-15T11:10:30.114Z,19.13
2022-09-15T11:13:19.614Z,19.17
2022-09-15T11:15:55.245Z,19.23
2022-09-15T11:18:45.207Z,19.28
2022-09-15T11:21:33.498Z,19.30
2022-09-15T11:24:29.044Z,19.34
2022-09-15T11:27:03.536Z,19.42
2022-09-15T11:29:52.445Z,19.47
2022-09-15T11:32:26.055Z,19.47
2022-09-15T11:35:04.986Z,19.40
2022-09-15T11:37:40.707Z,19.39
2022-09-15T11:40:34.582Z,19.36
2022-09-15T11:43:25.377Z,19.30
2022-09-15T11:45:59.598Z,19.30
2022-09-15T11:48:42.771Z,19.28
2022-09-15T11:51:14.045Z,19.26
2022-09-15T11:53:41.915Z,19.21
2022-09-15T11:56:22.368Z,19.15
2022-09-15T11:59:28.694Z,19.20
2022-09-15T12:02:16.089Z,19.29
2022-09-15T12:05:26.634Z,19.42
2022-09-15T12:08:14.530Z,19.58
2022-09-15T12:10:57.076Z,19.63
2022-09-15T12:13:27.565Z,19.57
2022-09-15T12:16:07.126Z,19.52
2022-09-15T12:18:51.387Z,19.44
2022-09-15T12:21:54.764Z,19.38
2022-09-15T12:24:51.329Z,19.24
2022-09-15T12:27:21.363Z,19.08
2022-09-15T12:29:58.372Z,18.95
2022-09-15T12:32:32.110Z,18.81
2022-09-15T12:35:17.773Z,18.73
2022-09-15T12:37:50.096Z,18.67
2022-09-15T12:40:30.786Z,18.61
2022-09-15T12:42:59.354Z,18.55
2022-09-15T12:45:36.372Z,18.47
2022-09-15T12:48:15.913Z,18.40
2022-09-15T12:50:53.327Z,18.34
2022-09-15T12:53:26.035Z,18.29
2022-09-15T12:55:57.104Z,18.28
2022-09-15T12:58:45.711Z,18.29
2022-09-15T13:01:19.686Z,18.34
2022-09-15T13:03:49.046Z,18.36
2022-09-15T13:06:21.861Z,18.38
2022-09-15T13:09:01.897Z,18.39
2022-09-15T13:11:38.612Z,18.40
2022-09-15T13:14:20.854Z,18.44
2022-09-15T13:17:07.306Z,18.45
2022-09-15T13:19:46.716Z,18.49
2022-09-15T13:22:27.423Z,18.57
2022-09-15T13:25:05.472Z,18.67
2022-09-15T13:27:40.931Z,18.81
2022-09-15T13:30:20.875Z,18.97
2022-09-15T13:33:08.109Z,19.15
2022-09-15T13:35:54.624Z,19.29
2022-09-15T13:38:40.756Z,19.40
2022-09-15T13:41:20.926Z,19.43
2022-09-15T13:44:27.951Z,19.38
2022-09-15T13:47:21.321Z,19.26
2022-09-15T13:50:11.928Z,19.11
2022-09-15T13:52:48.907Z,18.96
2022-09-15T13:55:25.520Z,18.82
2022-09-15T14:00:55.618Z,18.64
2022-09-15T14:03:39.628Z,18.53
2022-09-15T14:06:18.188Z,18.40
2022-09-15T14:08:50.156Z,18.28
2022-09-15T14:11:26.695Z,18.17
2022-09-15T14:13:57.523Z,18.06
2022-09-15T14:16:28.701Z,17.93
2022-09-15T14:18:58.595Z,17.79
2022-09-15T14:21:30.515Z,17.68
2022-09-15T14:24:04.100Z,17.57
2022-09-15T14:26:35.768Z,17.50
2022-09-15T14:29:06.245Z,17.46
2022-09-15T14:31:43.724Z,17.46
2022-09-15T14:34:16.738Z,17.48
2022-09-15T14:36:47.296Z,17.56
2022-09-15T14:39:20.816Z,17.68
2022-09-15T14:41:50.332Z,17.80
2022-09-15T14:47:28.203Z,18.07
2022-09-15T14:50:08.193Z,18.15
2022-09-15T14:52:43.552Z,18.24
2022-09-15T14:55:19.001Z,18.34
2022-09-15T14:57:54.276Z,18.43
2022-09-15T15:00:28.764Z,18.48
2022-09-15T15:03:22.694Z,18.51
2022-09-15T15:06:02.831Z,18.47
2022-09-15T15:08:42.280Z,18.44
2022-09-15T15:11:12.723Z,18.38
2022-09-15T15:13:45.507Z,18.30
2022-09-15T15:16:21.489Z,18.25
2022-09-15T15:18:51.583Z,18.22
2022-09-15T15:21:35.178Z,18.23
2022-09-15T15:24:15.523Z,18.36
2022-09-15T15:26:46.143Z,18.64
2022-09-15T15:29:43.821Z,18.92
2022-09-15T15:32:17.526Z,19.14
2022-09-15T15:34:54.369Z,19.21
2022-09-15T15:37:27.716Z,19.27
2022-09-15T15:40:04.557Z,19.28
2022-09-15T15:42:32.938Z,19.19
2022-09-15T15:45:06.381Z,19.04
2022-09-15T15:47:37.064Z,18.88
2022-09-15T15:50:29.316Z,18.70
2022-09-15T15:52:57.385Z,18.50
2022-09-15T15:55:35.857Z,18.34
2022-09-15T15:58:05.591Z,18.18
2022-09-15T16:00:39.698Z,18.05
2022-09-15T16:03:09.199Z,17.93
2022-09-15T16:05:38.642Z,17.85
2022-09-15T16:08:12.918Z,17.79
2022-09-15T16:10:44.711Z,17.74
2022-09-15T16:13:18.216Z,17.70
2022-09-15T16:15:46.526Z,17.67
2022-09-15T16:18:15.107Z,17.60
2022-09-15T16:20:43.586Z,17.53
2022-09-15T16:23:22.443Z,17.44
2022-09-15T16:26:05.812Z,17.34
2022-09-15T16:28:36.719Z,17.22
2022-09-15T16:31:06.502Z,17.10
2022-09-15T16:33:38.090Z,16.99
2022-09-15T16:36:08.962Z,16.90
2022-09-15T16:38:37.099Z,16.82
2022-09-15T16:41:15.628Z,16.75
2022-09-15T16:44:19.416Z,16.67
2022-09-15T16:46:48.287Z,16.59
2022-09-15T16:49:16.754Z,16.53
2022-09-15T16:51:45.194Z,16.47
2022-09-15T16:54:23.174Z,16.42
2022-09-15T16:57:19.615Z,16.37
2022-09-15T16:59:51.675Z,16.31
2022-09-15T17:02:24.814Z,16.27
2022-09-15T17:04:53.697Z,16.21
2022-09-15T17:07:22.586Z,16.15
2022-09-15T17:09:52.971Z,16.11
2022-09-15T17:12:32.968Z,16.08
2022-09-15T17:15:17.583Z,16.04
2022-09-15T17:17:48.421Z,15.99
2022-09-15T17:20:19.215Z,15.96
2022-09-15T17:22:48.367Z,15.91
2022-09-15T17:25:40.209Z,15.87
2022-09-15T17:28:09.459Z,15.82
2022-09-15T17:30:56.188Z,15.77
2022-09-15T17:33:24.947Z,15.74
2022-09-15T17:36:14.299Z,15.71
2022-09-15T17:38:49.268Z,15.66
2022-09-15T17:41:22.581Z,15.60
2022-09-15T17:43:52.703Z,15.57
2022-09-15T17:46:26.429Z,15.53
2022-09-15T17:49:04.094Z,15.47
2022-09-15T17:51:35.614Z,15.43
2022-09-15T17:54:09.075Z,15.39
2022-09-15T17:56:40.170Z,15.35
2022-09-15T17:59:13.060Z,15.33
2022-09-15T18:01:55.852Z,15.30
2022-09-15T18:04:24.597Z,15.30
2022-09-15T18:06:55.816Z,15.26
2022-09-15T18:09:25.655Z,15.22
2022-09-15T18:11:56.687Z,15.20
2022-09-15T18:14:27.324Z,15.16
2022-09-15T18:16:55.547Z,15.12
2022-09-15T18:19:23.947Z,15.09
2022-09-15T18:21:54.105Z,15.07
2022-09-15T18:24:29.376Z,15.04
2022-09-15T18:26:57.208Z,15.01
2022-09-15T18:29:27.448Z,14.98
2022-09-15T18:31:58.046Z,14.95
2022-09-15T18:34:32.399Z,14.91
2022-09-15T18:37:10.343Z,14.90
2022-09-15T18:39:41.857Z,14.88
2022-09-15T18:42:13.366Z,14.86
2022-09-15T18:44:43.087Z,14.83
2022-09-15T18:47:14.474Z,14.79
2022-09-15T18:49:45.659Z,14.76
2022-09-15T18:52:16.453Z,14.74
2022-09-15T18:54:44.938Z,14.72
2022-09-15T18:57:15.820Z,14.68
2022-09-15T18:59:48.906Z,14.64
2022-09-15T19:02:20.764Z,14.60
2022-09-15T19:04:51.420Z,14.55
2022-09-15T19:07:28.295Z,14.49
2022-09-15T19:09:56.873Z,14.44
2022-09-15T19:12:34.756Z,14.38
2022-09-15T19:15:10.860Z,14.33
2022-09-15T19:17:44.372Z,14.28
2022-09-15T19:20:24.577Z,14.23
2022-09-15T19:22:55.483Z,14.19
2022-09-15T19:25:24.332Z,14.14
2022-09-15T19:27:52.785Z,14.10
2022-09-15T19:30:21.344Z,14.05
2022-09-15T19:33:05.658Z,14.00
2022-09-15T19:35:37.101Z,13.94
2022-09-15T19:38:12.037Z,13.89
2022-09-15T19:40:48.989Z,13.84
2022-09-15T19:43:16.897Z,13.78
2022-09-15T19:45:48.172Z,13.77
2022-09-15T19:48:17.433Z,13.74
2022-09-15T19:50:47.986Z,13.70
2022-09-15T19:53:16.410Z,13.67
2022-09-15T19:55:52.468Z,13.64
2022-09-15T19:58:20.622Z,13.61
2022-09-15T20:00:55.984Z,13.58
2022-09-15T20:03:29.567Z,13.55
2022-09-15T20:05:58.602Z,13.53
2022-09-15T20:08:34.037Z,13.49
2022-09-15T20:11:09.782Z,13.46
2022-09-15T20:13:49.756Z,13.44
2022-09-15T20:16:25.478Z,13.41
2022-09-15T20:19:04.049Z,13.39
2022-09-15T20:21:53.018Z,13.37
2022-09-15T20:24:24.014Z,13.35
2022-09-15T20:27:03.183Z,13.32
2022-09-15T20:29:33.531Z,13.30
2022-09-15T20:32:06.798Z,13.27
2022-09-15T20:34:35.197Z,13.26
2022-09-15T20:37:03.516Z,13.25
2022-09-15T20:39:34.631Z,13.24
2022-09-15T20:42:04.880Z,13.24
2022-09-15T20:44:40.025Z,13.23
2022-09-15T20:47:08.206Z,13.25
2022-09-15T20:49:38.516Z,13.24
2022-09-15T20:52:06.450Z,13.25
2022-09-15T20:54:37.922Z,13.25
2022-09-15T20:57:11.017Z,13.27
2022-09-15T20:59:58.660Z,13.26
2022-09-15T21:02:27.156Z,13.26
2022-09-15T21:04:55.407Z,13.26
2022-09-15T21:07:23.781Z,13.26
2022-09-15T21:10:04.400Z,13.25
2022-09-15T21:12:39.126Z,13.14
2022-09-15T21:15:14.064Z,13.21
2022-09-15T21:17:50.742Z,13.18
2022-09-15T21:21:03.299Z,13.15
2022-09-15T21:23:41.226Z,13.11
2022-09-15T21:26:14.396Z,13.09
2022-09-15T21:29:21.173Z,13.04
2022-09-15T21:32:04.552Z,12.99
2022-09-15T21:34:39.056Z,12.95
2022-09-15T21:37:37.666Z,12.91
2022-09-15T21:40:22.530Z,12.87
2022-09-15T21:43:18.708Z,12.81
2022-09-15T21:46:16.371Z,12.75
2022-09-15T21:49:24.564Z,12.70
2022-09-15T21:51:58.181Z,12.65
2022-09-15T21:54:43.923Z,12.60
2022-09-15T21:57:39.920Z,12.56
2022-09-15T22:00:41.070Z,12.53
2022-09-15T22:03:14.286Z,12.48
2022-09-15T22:05:53.044Z,12.45
2022-09-15T22:08:33.359Z,12.42
2022-09-15T22:11:15.179Z,12.40
2022-09-15T22:14:08.896Z,12.36
2022-09-15T22:16:50.415Z,12.32
2022-09-15T22:19:48.676Z,12.32
2022-09-15T22:22:44.507Z,12.31
2022-09-15T22:25:21.673Z,12.32
2022-09-15T22:27:56.903Z,12.32
2022-09-15T22:30:42.476Z,12.33
2022-09-15T22:33:28.056Z,12.35
2022-09-15T22:36:07.753Z,12.38
2022-09-15T22:38:58.726Z,12.40
2022-09-15T22:42:16.060Z,12.43
2022-09-15T22:45:15.574Z,12.43
2022-09-15T22:47:49.585Z,12.47
2022-09-15T22:50:20.978Z,12.50
2022-09-15T22:53:08.119Z,12.52
2022-09-15T22:56:31.461Z,12.54
2022-09-15T22:59:00.475Z,12.57
2022-09-15T23:01:38.347Z,12.58
2022-09-15T23:04:29.871Z,12.60
2022-09-15T23:07:05.098Z,12.63
2022-09-15T23:09:40.734Z,12.65
2022-09-15T23:12:18.790Z,12.68
2022-09-15T23:15:04.245Z,12.72
2022-09-15T23:17:39.765Z,12.74
2022-09-15T23:20:09.663Z,12.78
2022-09-15T23:22:37.819Z,12.79
2022-09-15T23:25:38.972Z,12.81
2022-09-15T23:28:41.663Z,12.84
2022-09-15T23:31:23.050Z,12.84
2022-09-15T23:34:01.463Z,12.85
2022-09-15T23:37:04.132Z,12.86
2022-09-15T23:39:41.228Z,12.87
2022-09-15T23:42:21.658Z,12.87
2022-09-15T23:45:17.299Z,12.87
2022-09-15T23:47:53.550Z,12.87
2022-09-15T23:50:39.746Z,12.87
2022-09-15T23:53:20.242Z,12.87
2022-09-15T23:56:29.874Z,12.86
2022-09-15T23:59:06.628Z,12.85
